Time;durP1;ratioP1;P1;durP2;ratioP2;P2;SDS_P1;SDS_P2;PMS_P1;PMS_P2;Temp;Humidity;BMP_temperature;BMP_pressure;BME280_temperature;BME280_humidity;BME280_pressure;Samples;Min_cycle;Max_cycle;Signal;HPM_P1;HPM_P2
2022/01/02 00:00:17;;;;;;;11.10;1.25;;;16.20;21.30;;;;;;5114270;27;20107;-63
2022/01/02 00:02:50;;;;;;;4.78;0.93;;;16.10;21.20;;;;;;5114490;27;20093;-62
2022/01/02 00:05:22;;;;;;;7.55;1.35;;;16.10;21.50;;;;;;5115546;27;20555;-63
2022/01/02 00:08:04;;;;;;;10.35;1.65;;;16.00;21.40;;;;;;5114327;27;20067;-64
2022/01/02 00:10:33;;;;;;;9.40;1.40;;;16.00;22.00;;;;;;5114199;27;20126;-63
2022/01/02 00:13:01;;;;;;;9.30;0.90;;;16.00;24.30;;;;;;5113806;27;20111;-64
2022/01/02 00:15:27;;;;;;;11.95;1.63;;;15.90;23.40;;;;;;5114211;27;20075;-62
2022/01/02 00:17:56;;;;;;;17.45;1.85;;;15.90;22.50;;;;;;5114427;27;20090;-62
2022/01/02 00:20:32;;;;;;;10.25;1.77;;;15.70;22.30;;;;;;5113262;27;20167;-63
2022/01/02 00:23:06;;;;;;;13.80;2.20;;;15.70;21.80;;;;;;5113327;27;20501;-64
2022/01/02 00:25:40;;;;;;;15.82;1.90;;;15.60;21.80;;;;;;5113967;27;20151;-63
2022/01/02 00:28:07;;;;;;;14.25;1.80;;;15.60;23.70;;;;;;5113565;27;20091;-63
2022/01/02 00:30:34;;;;;;;11.20;1.35;;;15.60;25.30;;;;;;5132497;27;20068;-65
2022/01/02 00:33:01;;;;;;;13.70;1.63;;;15.50;25.40;;;;;;5131955;27;20092;-61
2022/01/02 00:35:29;;;;;;;17.27;2.50;;;15.30;23.20;;;;;;5114591;27;20082;-64
2022/01/02 00:37:55;;;;;;;13.30;2.35;;;15.20;22.50;;;;;;5132261;27;20182;-64
2022/01/02 00:40:22;;;;;;;16.85;2.60;;;15.10;23.40;;;;;;5114864;27;20071;-62
2022/01/02 00:42:55;;;;;;;18.40;2.83;;;15.00;24.50;;;;;;5132791;27;20458;-65
2022/01/02 00:45:29;;;;;;;18.30;3.63;;;14.90;26.90;;;;;;5114401;27;20079;-63
2022/01/02 00:48:41;;;;;;;12.63;2.28;;;14.90;27.30;;;;;;5114220;27;20531;-64
2022/01/02 00:51:31;;;;;;;16.15;2.72;;;14.50;41.60;;;;;;5029600;28;20092;-61
2022/01/02 00:54:01;;;;;;;17.27;2.90;;;14.50;26.20;;;;;;5024464;28;20602;-64
2022/01/02 00:56:31;;;;;;;27.63;3.40;;;14.50;26.10;;;;;;5029696;28;20085;-64
2022/01/02 00:59:02;;;;;;;17.60;3.10;;;14.40;29.10;;;;;;5029644;28;20074;-64
2022/01/02 01:01:34;;;;;;;21.08;3.25;;;14.20;29.60;;;;;;5013055;28;20139;-64
2022/01/02 01:04:02;;;;;;;13.90;2.90;;;14.20;29.20;;;;;;4998143;28;20196;-63
2022/01/02 01:06:32;;;;;;;19.45;3.60;;;14.00;28.90;;;;;;5029436;28;20140;-63
2022/01/02 01:09:04;;;;;;;20.15;3.53;;;13.80;29.30;;;;;;5029682;28;20081;-63
2022/01/02 01:11:31;;;;;;;18.13;3.53;;;13.60;30.10;;;;;;5012908;28;20077;-64
2022/01/02 01:13:59;;;;;;;15.82;4.00;;;13.50;37.50;;;;;;5010170;28;20577;-64
2022/01/02 01:16:26;;;;;;;24.88;3.42;;;13.40;30.60;;;;;;5011595;28;20464;-65
2022/01/02 01:18:53;;;;;;;14.35;3.03;;;13.20;48.60;;;;;;5028793;28;20074;-64
2022/01/02 01:21:20;;;;;;;18.45;3.00;;;13.20;32.50;;;;;;5012960;28;20557;-65
2022/01/02 01:23:46;;;;;;;;;;;13.30;31.50;;;;;;5012664;28;20143;-66
2022/01/02 01:26:16;;;;;;;29.48;4.72;;;13.10;31.40;;;;;;5028754;28;19973;-66
2022/01/02 01:28:42;;;;;;;16.40;3.85;;;13.10;30.50;;;;;;5116062;27;20087;-65
2022/01/02 01:31:08;;;;;;;;;;;13.00;30.70;;;;;;5115293;27;20469;-62
2022/01/02 01:33:35;;;;;;;23.23;4.10;;;13.00;50.80;;;;;;5114864;27;20038;-66
2022/01/02 01:36:01;;;;;;;20.88;3.90;;;12.90;33.60;;;;;;5135100;27;20554;-64
2022/01/02 01:38:27;;;;;;;;;;;12.90;32.60;;;;;;5117829;27;20132;-63
2022/01/02 01:41:09;;;;;;;19.48;6.07;;;12.90;47.50;;;;;;5136146;27;19952;-64
2022/01/02 01:43:51;;;;;;;23.42;6.15;;;12.50;51.10;;;;;;5133941;27;20107;-65
2022/01/02 01:46:18;;;;;;;25.20;6.47;;;12.60;33.70;;;;;;5131271;27;20067;-65
2022/01/02 01:48:51;;;;;;;;;;;12.60;36.40;;;;;;5135619;27;20072;-68
2022/01/02 01:51:17;;;;;;;39.92;7.60;;;12.60;36.40;;;;;;5135117;27;19959;-66
2022/01/02 01:53:43;;;;;;;;;;;12.40;36.40;;;;;;5115596;27;20159;-64
2022/01/02 01:56:10;;;;;;;28.77;7.00;;;11.90;54.50;;;;;;5116133;27;20017;-65
2022/01/02 01:58:37;;;;;;;27.80;7.88;;;12.20;36.90;;;;;;5116400;27;20155;-63
2022/01/02 02:01:03;;;;;;;;;;;12.20;38.30;;;;;;5117988;27;20071;-65
2022/01/02 02:03:29;;;;;;;29.40;7.50;;;12.20;38.10;;;;;;5116205;27;20318;-65
2022/01/02 02:05:56;;;;;;;29.77;8.25;;;12.10;54.00;;;;;;5117715;27;20076;-65
2022/01/02 02:08:25;;;;;;;;;;;12.10;36.30;;;;;;5115571;27;20598;-64
2022/01/02 02:10:57;;;;;;;38.97;12.57;;;11.70;52.80;;;;;;5114074;27;19972;-66
2022/01/02 02:13:25;;;;;;;37.85;12.82;;;11.90;59.00;;;;;;5098956;27;20564;-62
2022/01/02 02:15:57;;;;;;;41.25;12.50;;;11.90;39.40;;;;;;5134622;27;20474;-63
2022/01/02 02:18:23;;;;;;;31.33;11.68;;;11.90;39.70;;;;;;5116211;27;20119;-65
2022/01/02 02:20:49;;;;;;;40.72;12.75;;;11.80;55.70;;;;;;5134371;27;20527;-64
2022/01/02 02:23:16;;;;;;;44.10;14.25;;;11.90;56.40;;;;;;5113969;27;20172;-66
2022/01/02 02:25:43;;;;;;;;;;;11.70;39.50;;;;;;5133626;27;20089;-66
2022/01/02 02:28:17;;;;;;;44.55;12.80;;;11.60;58.80;;;;;;5117221;28;19964;-64
2022/01/02 02:30:46;;;;;;;51.30;13.73;;;11.70;41.40;;;;;;5135359;27;20415;-66
2022/01/02 02:33:13;;;;;;;30.02;12.52;;;11.20;57.70;;;;;;5117221;27;20166;-68
2022/01/02 02:35:42;;;;;;;49.92;14.38;;;11.10;59.40;;;;;;5119736;27;20164;-67
2022/01/02 02:38:10;;;;;;;46.20;15.02;;;11.40;39.70;;;;;;5115233;28;20072;-62
2022/01/02 02:40:37;;;;;;;42.72;15.27;;;11.40;40.00;;;;;;5146568;27;20092;-66
2022/01/02 02:43:13;;;;;;;39.90;15.18;;;11.40;41.90;;;;;;5115290;27;20095;-65
2022/01/02 02:51:17;;;;;;;36.78;15.18;;;11.10;41.80;;;;;;5133669;27;20125;-63
2022/01/02 02:53:46;;;;;;;40.40;15.18;;;11.00;42.70;;;;;;5115680;27;20163;-65
2022/01/02 02:56:20;;;;;;;38.60;15.32;;;11.10;62.40;;;;;;5135608;27;20083;-66
2022/01/02 02:58:52;;;;;;;45.63;16.02;;;10.90;43.10;;;;;;5119052;27;20081;-64
2022/01/02 03:01:26;;;;;;;43.08;15.18;;;11.00;63.50;;;;;;5136842;27;20078;-65
2022/01/02 03:03:53;;;;;;;40.05;14.55;;;10.90;45.40;;;;;;5119923;27;20174;-65
2022/01/02 03:06:20;;;;;;;46.85;16.73;;;10.90;45.10;;;;;;5131358;27;20155;-63
2022/01/02 03:08:48;;;;;;;46.88;16.23;;;10.70;63.30;;;;;;5121715;27;20067;-65
2022/01/02 03:11:19;;;;;;;49.67;16.40;;;10.70;44.70;;;;;;5120239;27;20133;-65
2022/01/02 03:13:50;;;;;;;51.60;16.50;;;10.80;45.40;;;;;;5137587;27;20187;-66
2022/01/02 03:16:17;;;;;;;48.45;16.30;;;11.10;64.20;;;;;;5119588;27;20591;-62
2022/01/02 03:18:43;;;;;;;44.00;16.58;;;10.40;64.50;;;;;;5137798;27;20114;-68
2022/01/02 03:21:11;;;;;;;56.00;16.20;;;10.70;46.10;;;;;;5117898;27;20553;-64
2022/01/02 03:23:38;;;;;;;46.10;15.82;;;10.60;46.60;;;;;;5119178;27;20103;-63
2022/01/02 03:26:05;;;;;;;40.97;14.88;;;10.70;47.50;;;;;;5118975;27;20067;-66
2022/01/02 03:28:33;;;;;;;36.97;14.93;;;10.70;47.10;;;;;;5118458;27;20083;-65
2022/01/02 03:30:59;;;;;;;55.72;16.20;;;10.80;64.80;;;;;;5116920;27;20067;-64
2022/01/02 03:33:26;;;;;;;42.47;17.23;;;10.50;46.40;;;;;;5118182;27;20236;-65
2022/01/02 03:35:52;;;;;;;;;;;10.60;46.50;;;;;;5139593;27;20135;-65
2022/01/02 03:38:18;;;;;;;38.22;15.60;;;;;;;;;;5151681;27;19960;-64
2022/01/02 03:40:44;;;;;;;;;;;10.40;46.90;;;;;;5120335;27;20172;-63
2022/01/02 03:43:11;;;;;;;53.28;17.77;;;9.90;65.50;;;;;;5137068;27;19971;-64
2022/01/02 03:45:37;;;;;;;54.28;17.48;;;10.30;47.20;;;;;;5118305;27;20255;-63
2022/01/02 03:48:03;;;;;;;;;;;10.30;47.00;;;;;;5117412;27;20091;-66
2022/01/02 03:50:29;;;;;;;47.45;17.60;;;10.30;47.30;;;;;;5116334;27;19956;-63
2022/01/02 03:52:55;;;;;;;;;;;10.20;47.00;;;;;;5119258;27;20068;-64
2022/01/02 03:55:22;;;;;;;57.75;18.55;;;10.30;47.00;;;;;;5118427;27;19979;-66
2022/01/02 03:57:49;;;;;;;44.85;17.73;;;10.30;46.10;;;;;;5118741;27;20166;-65
2022/01/02 04:00:16;;;;;;;55.92;18.73;;;10.30;45.60;;;;;;5118824;27;20099;-68
2022/01/02 04:02:43;;;;;;;52.95;20.48;;;10.30;44.70;;;;;;5101681;27;20087;-65
2022/01/02 04:05:12;;;;;;;48.88;19.30;;;10.40;44.40;;;;;;5119322;27;20114;-66
2022/01/02 04:07:39;;;;;;;42.60;18.90;;;10.40;43.70;;;;;;5117554;27;20072;-64
2022/01/02 04:10:09;;;;;;;43.08;18.45;;;10.40;42.50;;;;;;5118506;27;20095;-64
2022/01/02 04:12:36;;;;;;;49.78;19.52;;;10.40;40.60;;;;;;5117584;27;20570;-64
2022/01/02 04:15:05;;;;;;;41.17;19.33;;;10.40;40.60;;;;;;5149342;27;20076;-63
2022/01/02 04:17:33;;;;;;;42.85;17.75;;;10.40;39.80;;;;;;5118235;27;20156;-64
2022/01/02 04:20:00;;;;;;;28.05;8.52;;;10.30;38.20;;;;;;5117752;27;20078;-65
2022/01/02 04:22:26;;;;;;;30.25;9.63;;;10.30;36.80;;;;;;5118829;27;20557;-63
2022/01/02 04:24:52;;;;;;;;;;;10.40;35.90;;;;;;5119269;27;20099;-67
2022/01/02 04:27:20;;;;;;;18.15;8.50;;;10.40;35.50;;;;;;5117416;27;19956;-67
2022/01/02 04:29:46;;;;;;;21.33;9.40;;;10.50;34.90;;;;;;5116113;27;20083;-66
2022/01/02 04:32:14;;;;;;;16.70;8.00;;;10.50;34.60;;;;;;5118709;27;20076;-65
2022/01/02 04:34:41;;;;;;;13.70;4.40;;;10.60;36.20;;;;;;5118613;27;20094;-65
2022/01/02 04:37:08;;;;;;;10.93;3.58;;;10.60;34.20;;;;;;5138227;27;20079;-65
2022/01/02 04:39:34;;;;;;;13.90;3.35;;;10.50;32.90;;;;;;5135958;27;20080;-64
2022/01/02 04:42:01;;;;;;;13.32;3.55;;;10.60;34.20;;;;;;5149072;27;20976;-63
2022/01/02 04:44:27;;;;;;;10.40;3.30;;;10.60;35.10;;;;;;5118078;27;20087;-66
2022/01/02 04:46:53;;;;;;;;;;;10.50;34.90;;;;;;5117644;27;20116;-64
2022/01/02 04:49:20;;;;;;;13.75;4.60;;;10.40;33.90;;;;;;5116414;27;20007;-67
2022/01/02 04:51:46;;;;;;;8.00;3.85;;;10.40;34.50;;;;;;5115582;27;20072;-65
2022/01/02 04:54:14;;;;;;;;;;;10.50;35.20;;;;;;5118282;27;20072;-65
2022/01/02 04:56:41;;;;;;;12.27;4.32;;;10.50;36.50;;;;;;5135064;27;19956;-66
2022/01/02 04:59:07;;;;;;;9.45;3.90;;;10.40;35.80;;;;;;5117077;27;20570;-62
2022/01/02 05:01:33;;;;;;;11.95;3.03;;;10.20;34.70;;;;;;5117738;27;20164;-65
2022/01/02 05:03:59;;;;;;;;;;;10.30;33.90;;;;;;5116348;27;20146;-67
2022/01/02 05:06:26;;;;;;;13.45;4.20;;;10.30;35.70;;;;;;5118559;27;19956;-61
2022/01/02 05:08:52;;;;;;;15.85;3.92;;;10.30;35.70;;;;;;5118589;27;20158;-60
2022/01/02 05:11:18;;;;;;;;;;;10.40;35.50;;;;;;5099473;27;20075;-61
2022/01/02 05:13:44;;;;;;;9.15;3.40;;;10.50;34.10;;;;;;5099381;28;19991;-62
2022/01/02 05:16:11;;;;;;;;;;;10.60;33.50;;;;;;5091645;28;20077;-65
2022/01/02 05:18:37;;;;;;;8.73;3.05;;;10.60;33.30;;;;;;5093507;28;19973;-62
2022/01/02 05:21:03;;;;;;;;;;;10.70;33.10;;;;;;5091944;28;20099;-63
2022/01/02 05:23:30;;;;;;;11.65;4.10;;;10.60;32.50;;;;;;5089185;28;19991;-63
2022/01/02 05:25:57;;;;;;;8.82;2.60;;;10.60;32.50;;;;;;5090756;28;20417;-64
2022/01/02 05:28:24;;;;;;;7.65;2.60;;;10.60;32.10;;;;;;5092600;28;20470;-62
2022/01/02 05:30:51;;;;;;;5.53;2.70;;;10.60;33.90;;;;;;5089768;28;20100;-63
2022/01/02 05:33:17;;;;;;;8.48;3.03;;;10.70;35.60;;;;;;5087813;28;20073;-65
2022/01/02 05:35:44;;;;;;;;;;;10.60;34.40;;;;;;5090997;28;20072;-62
2022/01/02 05:38:10;;;;;;;8.27;3.00;;;10.70;34.60;;;;;;5089345;28;20338;-65
2022/01/02 05:40:36;;;;;;;;;;;10.60;35.70;;;;;;5090210;28;20503;-64
2022/01/02 05:43:05;;;;;;;6.40;2.88;;;10.50;34.40;;;;;;5090702;28;19960;-61
2022/01/02 05:45:32;;;;;;;8.02;2.42;;;10.50;33.70;;;;;;5091120;28;20103;-65
2022/01/02 05:47:58;;;;;;;5.30;3.30;;;10.60;34.60;;;;;;5089745;28;20099;-61
2022/01/02 05:50:25;;;;;;;12.65;5.35;;;10.40;36.00;;;;;;5090158;28;20081;-63
2022/01/02 05:52:51;;;;;;;;;;;10.40;34.80;;;;;;5093287;28;20087;-61
2022/01/02 05:55:17;;;;;;;10.57;3.72;;;10.30;33.60;;;;;;5091678;28;19976;-63
2022/01/02 05:57:43;;;;;;;;;;;10.30;33.60;;;;;;5091679;28;20093;-63
2022/01/02 06:00:10;;;;;;;7.28;3.40;;;10.30;33.30;;;;;;5072595;28;19957;-65
2022/01/02 06:02:37;;;;;;;16.92;4.22;;;10.20;33.60;;;;;;5091000;28;20196;-64
2022/01/02 06:05:04;;;;;;;;;;;10.20;35.40;;;;;;5090957;28;20112;-62
2022/01/02 06:07:34;;;;;;;11.05;4.82;;;9.50;58.40;;;;;;5090336;28;19998;-70
2022/01/02 06:10:03;;;;;;;12.35;4.60;;;10.00;32.90;;;;;;5089623;28;20123;-64
2022/01/02 06:12:29;;;;;;;10.95;3.72;;;10.70;44.80;;;;;;5104525;28;20107;-66
2022/01/02 06:14:55;;;;;;;9.60;3.80;;;10.50;51.80;;;;;;5119860;27;20613;-64
2022/01/02 06:17:22;;;;;;;;;;;10.30;34.60;;;;;;5115154;27;20090;-63
2022/01/02 06:19:48;;;;;;;10.88;3.63;;;10.80;44.40;;;;;;5121440;28;20375;-67
2022/01/02 06:22:14;;;;;;;10.10;3.70;;;10.90;32.80;;;;;;5134246;27;20072;-65
2022/01/02 06:24:40;;;;;;;;;;;11.00;35.60;;;;;;5114786;28;20565;-66
2022/01/02 06:27:07;;;;;;;6.78;3.75;;;10.60;35.70;;;;;;5114528;27;19971;-64
2022/01/02 06:29:33;;;;;;;;;;;10.90;35.20;;;;;;5132945;27;20080;-64
2022/01/02 06:32:00;;;;;;;11.23;3.63;;;11.20;33.30;;;;;;5115662;27;19966;-65
2022/01/02 06:34:26;;;;;;;12.18;4.28;;;11.40;34.00;;;;;;5118726;27;20087;-65
2022/01/02 06:36:52;;;;;;;;;;;11.60;35.80;;;;;;5101968;27;20548;-64
2022/01/02 06:39:19;;;;;;;8.40;3.13;;;10.80;48.20;;;;;;5135677;27;19995;-63
2022/01/02 06:41:45;;;;;;;;;;;10.60;34.90;;;;;;5113889;27;20075;-65
2022/01/02 06:44:12;;;;;;;12.35;3.08;;;10.60;35.70;;;;;;5118006;27;20434;-64
2022/01/02 06:46:39;;;;;;;;;;;10.90;34.30;;;;;;5137183;27;20462;-64
2022/01/02 06:49:06;;;;;;;8.55;3.20;;;10.90;33.20;;;;;;5119625;27;19964;-66
2022/01/02 06:51:32;;;;;;;;;;;10.80;34.80;;;;;;5137316;27;20071;-65
2022/01/02 06:53:58;;;;;;;14.63;5.30;;;10.30;35.00;;;;;;5117347;27;20318;-64
2022/01/02 06:56:24;;;;;;;;;;;10.60;33.90;;;;;;5119084;27;20076;-64
2022/01/02 06:58:51;;;;;;;12.23;3.60;;;10.90;32.80;;;;;;5117628;27;19959;-65
2022/01/02 07:01:17;;;;;;;10.05;3.60;;;11.30;32.50;;;;;;5117490;27;20132;-62
2022/01/02 07:03:43;;;;;;;;;;;11.50;32.00;;;;;;5116970;27;20122;-65
2022/01/02 07:06:10;;;;;;;14.68;4.88;;;11.50;32.10;;;;;;5118030;27;19956;-65
2022/01/02 07:08:36;;;;;;;;;;;11.70;33.70;;;;;;5117060;27;20100;-65
2022/01/02 07:11:02;;;;;;;11.18;5.63;;;11.20;35.60;;;;;;5118245;27;19994;-64
2022/01/02 07:13:28;;;;;;;;;;;11.00;37.20;;;;;;5100361;27;20470;-65
2022/01/02 07:15:54;;;;;;;21.83;6.20;;;10.90;46.70;;;;;;5116646;27;20024;-64
2022/01/02 07:18:20;;;;;;;;;;;11.10;35.20;;;;;;5117311;27;20672;-67
2022/01/02 07:20:47;;;;;;;21.25;7.35;;;11.10;37.90;;;;;;5134661;27;19956;-66
2022/01/02 07:23:13;;;;;;;25.10;8.15;;;11.00;38.40;;;;;;5099646;27;20087;-65
2022/01/02 07:25:39;;;;;;;;;;;10.90;38.40;;;;;;5116774;27;20552;-63
2022/01/02 07:28:06;;;;;;;26.98;9.07;;;10.20;57.00;;;;;;5134403;27;20000;-67
2022/01/02 07:30:32;;;;;;;;;;;10.30;39.10;;;;;;5135484;27;20068;-65
2022/01/02 07:33:02;;;;;;;36.35;12.77;;;10.10;38.60;;;;;;5116333;27;20021;-66
2022/01/02 07:35:29;;;;;;;28.73;11.23;;;9.80;57.30;;;;;;5116832;27;20523;-65
2022/01/02 07:37:57;;;;;;;32.20;11.73;;;9.90;59.80;;;;;;5118545;27;20072;-65
2022/01/02 07:40:25;;;;;;;28.40;11.43;;;9.60;41.00;;;;;;5118203;27;20582;-65
2022/01/02 07:42:52;;;;;;;31.63;12.00;;;9.60;56.00;;;;;;5115169;27;20519;-65
2022/01/02 07:45:19;;;;;;;28.33;12.10;;;9.50;39.00;;;;;;5115116;27;20076;-66
2022/01/02 07:47:46;;;;;;;29.27;12.18;;;9.50;38.70;;;;;;5116274;27;20450;-65
2022/01/02 07:50:12;;;;;;;22.98;11.43;;;9.70;39.10;;;;;;5135239;27;20080;-66
2022/01/02 07:52:39;;;;;;;32.47;12.68;;;9.90;38.50;;;;;;5116855;27;20108;-68
2022/01/02 07:55:06;;;;;;;34.05;12.52;;;10.10;40.70;;;;;;5122675;27;20122;-64
2022/01/02 07:57:33;;;;;;;32.97;12.88;;;10.20;39.30;;;;;;5116562;27;20124;-65
2022/01/02 07:59:59;;;;;;;31.05;12.25;;;10.10;39.20;;;;;;5134913;27;20116;-64
2022/01/02 08:02:26;;;;;;;40.63;13.38;;;10.00;42.10;;;;;;5115522;27;20092;-64
2022/01/02 08:04:52;;;;;;;;;;;9.60;42.40;;;;;;5116892;27;20087;-64
2022/01/02 08:07:18;;;;;;;29.77;13.07;;;9.30;42.90;;;;;;5149821;27;19960;-64
2022/01/02 08:09:44;;;;;;;;;;;9.50;41.70;;;;;;5116538;27;20072;-65
2022/01/02 08:12:10;;;;;;;30.85;11.25;;;9.50;42.40;;;;;;5132010;27;19986;-63
2022/01/02 08:14:36;;;;;;;;;;;9.20;43.60;;;;;;5115944;27;20079;-63
2022/01/02 08:17:03;;;;;;;27.50;12.30;;;9.00;42.90;;;;;;5115434;27;20097;-65
2022/01/02 08:19:30;;;;;;;30.90;12.82;;;9.20;42.60;;;;;;5133275;27;20478;-67
2022/01/02 08:21:56;;;;;;;;;;;8.80;44.10;;;;;;5116222;27;20153;-65
2022/01/02 08:24:22;;;;;;;33.42;12.00;;;9.10;43.90;;;;;;5116218;27;20015;-64
2022/01/02 08:26:48;;;;;;;;;;;9.20;42.90;;;;;;5116086;27;20161;-65
2022/01/02 08:29:15;;;;;;;23.13;11.10;;;9.00;43.60;;;;;;5134172;27;19955;-65
2022/01/02 08:31:41;;;;;;;;;;;8.80;44.40;;;;;;5116270;27;20083;-65
2022/01/02 08:34:07;;;;;;;28.08;11.43;;;8.60;43.40;;;;;;5116206;27;20035;-64
2022/01/02 08:36:33;;;;;;;26.17;12.05;;;8.40;43.30;;;;;;5117013;27;20132;-64
2022/01/02 08:38:59;;;;;;;;;;;8.50;44.20;;;;;;5135406;27;20124;-64
2022/01/02 08:41:26;;;;;;;26.35;12.07;;;8.30;44.70;;;;;;5112719;27;19956;-64
2022/01/02 08:43:52;;;;;;;;;;;8.20;44.70;;;;;;5114866;27;20091;-65
2022/01/02 08:46:18;;;;;;;31.17;11.75;;;8.20;44.00;;;;;;5115127;27;20321;-64
2022/01/02 08:48:44;;;;;;;;;;;8.40;44.00;;;;;;5115071;27;20071;-65
2022/01/02 08:51:12;;;;;;;32.67;11.98;;;8.20;44.40;;;;;;5113825;27;19971;-64
2022/01/02 08:53:39;;;;;;;26.60;12.18;;;8.30;45.30;;;;;;5113203;27;20075;-64
2022/01/02 08:56:06;;;;;;;37.28;14.00;;;8.40;43.90;;;;;;5113899;27;20159;-66
2022/01/02 08:58:32;;;;;;;43.95;15.40;;;8.60;44.40;;;;;;5132295;27;20068;-64
2022/01/02 09:01:00;;;;;;;;;;;8.30;45.50;;;;;;5130307;27;20449;-63
2022/01/02 09:03:27;;;;;;;43.47;14.48;;;8.50;44.90;;;;;;5114003;27;19984;-66
2022/01/02 09:05:53;;;;;;;33.08;12.90;;;7.90;58.30;;;;;;5113787;27;20127;-64
2022/01/02 09:08:20;;;;;;;35.47;15.40;;;8.20;45.20;;;;;;5115891;27;20071;-63
2022/01/02 09:10:47;;;;;;;29.85;13.93;;;8.00;46.50;;;;;;5147443;27;20071;-65
2022/01/02 09:13:13;;;;;;;;;;;8.20;46.60;;;;;;5114981;27;20111;-64
2022/01/02 09:15:40;;;;;;;33.57;12.23;;;8.10;45.90;;;;;;5132740;27;19972;-65
2022/01/02 09:18:07;;;;;;;31.30;12.45;;;8.10;45.40;;;;;;5114336;27;20076;-64
2022/01/02 09:20:34;;;;;;;29.65;12.02;;;8.00;45.70;;;;;;5112657;27;20091;-64
2022/01/02 09:23:00;;;;;;;30.48;12.48;;;7.90;45.00;;;;;;5148923;27;20127;-66
2022/01/02 09:25:26;;;;;;;;;;;7.90;46.70;;;;;;5113286;27;20101;-66
2022/01/02 09:27:53;;;;;;;32.63;13.73;;;7.80;47.00;;;;;;5146967;27;20045;-64
2022/01/02 09:30:19;;;;;;;;;;;7.60;45.70;;;;;;5134493;27;20112;-64
2022/01/02 09:32:45;;;;;;;36.35;14.88;;;7.60;46.10;;;;;;5115280;27;19963;-65
2022/01/02 09:35:11;;;;;;;;;;;7.60;47.60;;;;;;5115935;27;20963;-65
2022/01/02 09:37:38;;;;;;;42.10;16.83;;;7.60;46.20;;;;;;5115316;27;19976;-67
2022/01/02 09:40:06;;;;;;;42.10;16.92;;;7.40;46.40;;;;;;5113713;27;20144;-65
2022/01/02 09:42:34;;;;;;;48.58;17.63;;;7.50;46.90;;;;;;5131624;27;20087;-64
2022/01/02 09:45:02;;;;;;;37.10;15.52;;;7.50;47.90;;;;;;5133591;27;20091;-64
2022/01/02 09:47:29;;;;;;;48.85;16.90;;;7.60;47.10;;;;;;5112407;27;20095;-63
2022/01/02 09:49:57;;;;;;;43.40;17.48;;;7.70;47.70;;;;;;5115687;27;20094;-64
2022/01/02 09:52:32;;;;;;;38.08;18.52;;;7.40;48.10;;;;;;5114231;27;20545;-64
2022/01/02 09:54:59;;;;;;;51.47;20.50;;;7.30;47.20;;;;;;5116113;27;20082;-64
2022/01/02 09:57:25;;;;;;;56.38;20.25;;;7.30;46.80;;;;;;5113285;27;20091;-64
2022/01/02 09:59:53;;;;;;;;;;;7.40;48.40;;;;;;5115558;27;20722;-67
2022/01/02 10:02:19;;;;;;;54.42;22.50;;;7.30;48.60;;;;;;5115520;27;19971;-65
2022/01/02 10:04:46;;;;;;;58.05;24.15;;;7.10;47.30;;;;;;5115027;27;20091;-66
2022/01/02 10:07:28;;;;;;;;;;;7.10;47.90;;;;;;5114135;27;20066;-64
2022/01/02 10:09:55;;;;;;;57.90;23.10;;;7.10;49.80;;;;;;5147483;27;19952;-64
2022/01/02 10:12:30;;;;;;;74.78;27.58;;;7.30;48.60;;;;;;5133483;27;20128;-64
2022/01/02 10:15:15;;;;;;;68.75;27.33;;;7.30;47.50;;;;;;5115390;27;20110;-63
2022/01/02 10:18:07;;;;;;;72.60;27.50;;;7.60;47.40;;;;;;5112201;27;20083;-64
2022/01/02 10:20:40;;;;;;;58.88;26.30;;;7.50;48.20;;;;;;5114038;27;20531;-67
2022/01/02 10:23:14;;;;;;;74.45;27.52;;;7.50;47.20;;;;;;5114662;27;20498;-63
2022/01/02 10:25:51;;;;;;;68.55;27.75;;;7.30;46.00;;;;;;5112240;27;20072;-65
2022/01/02 10:28:30;;;;;;;71.75;29.42;;;7.30;46.20;;;;;;5146315;27;20072;-63
2022/01/02 10:31:15;;;;;;;75.95;29.70;;;7.20;48.00;;;;;;5111745;27;20158;-65
2022/01/02 10:33:57;;;;;;;78.45;29.92;;;7.10;47.50;;;;;;5130190;27;20092;-63
2022/01/02 10:36:38;;;;;;;88.05;31.70;;;7.20;46.10;;;;;;5112034;27;20071;-64
2022/01/02 10:39:19;;;;;;;91.10;30.27;;;7.40;46.80;;;;;;5113379;27;20072;-64
2022/01/02 10:41:48;;;;;;;72.25;28.38;;;7.40;45.00;;;;;;5147579;27;20168;-64
2022/01/02 10:44:35;;;;;;;71.38;26.55;;;7.50;44.40;;;;;;5111379;28;20547;-66
2022/01/02 10:47:15;;;;;;;86.53;28.88;;;7.40;43.40;;;;;;5112878;28;20083;-63
2022/01/02 10:49:53;;;;;;;70.05;28.33;;;7.40;43.60;;;;;;5112715;28;20084;-62
2022/01/02 10:52:31;;;;;;;67.97;25.75;;;7.50;43.60;;;;;;5113104;28;20078;-63
2022/01/02 10:55:00;;;;;;;65.88;25.17;;;7.60;44.50;;;;;;5112733;28;20111;-64
2022/01/02 10:57:27;;;;;;;67.22;25.52;;;7.60;46.30;;;;;;5111997;28;20080;-65
2022/01/02 10:59:58;;;;;;;61.17;23.10;;;7.40;46.00;;;;;;5111892;28;20258;-64
2022/01/02 11:02:27;;;;;;;70.55;23.98;;;7.20;44.60;;;;;;5115620;27;20514;-65
2022/01/02 11:04:57;;;;;;;78.38;24.98;;;7.30;45.10;;;;;;5133941;27;20094;-64
2022/01/02 11:07:25;;;;;;;66.30;23.23;;;7.20;46.60;;;;;;5133256;27;20147;-64
2022/01/02 11:09:55;;;;;;;67.15;23.98;;;7.50;46.20;;;;;;5113340;28;20087;-64
2022/01/02 11:12:23;;;;;;;69.75;23.80;;;7.30;47.20;;;;;;5112013;28;20115;-64
2022/01/02 11:14:51;;;;;;;64.38;24.02;;;7.10;47.90;;;;;;5113166;27;20220;-63
2022/01/02 11:17:18;;;;;;;73.38;24.02;;;7.10;46.70;;;;;;5113212;27;20158;-64
2022/01/02 11:19:45;;;;;;;61.10;25.02;;;7.10;46.50;;;;;;5117094;27;20071;-64
2022/01/02 11:22:18;;;;;;;;;;;6.90;47.70;;;;;;5118354;27;20084;-66
2022/01/02 11:24:52;;;;;;;66.20;25.98;;;6.80;48.20;;;;;;5117837;27;20016;-64
2022/01/02 11:27:25;;;;;;;68.38;24.80;;;7.60;48.80;;;;;;5130494;27;20453;-65
2022/01/02 11:29:52;;;;;;;70.75;26.08;;;6.90;49.70;;;;;;5116749;27;20418;-65
2022/01/02 11:32:23;;;;;;;;;;;7.00;49.90;;;;;;5117894;27;20549;-67
2022/01/02 11:34:49;;;;;;;64.50;25.52;;;7.20;49.50;;;;;;5115943;27;19956;-64
2022/01/02 11:37:20;;;;;;;68.55;24.75;;;7.20;49.00;;;;;;5134992;27;20438;-64
2022/01/02 11:40:01;;;;;;;58.72;24.25;;;6.90;47.10;;;;;;5116163;27;20412;-63
2022/01/02 11:42:38;;;;;;;68.07;25.75;;;6.90;48.10;;;;;;5132611;27;20113;-65
2022/01/02 11:45:33;;;;;;;54.90;23.15;;;6.60;50.10;;;;;;5115306;27;20534;-65
2022/01/02 11:48:01;;;;;;;66.55;23.65;;;6.60;49.50;;;;;;5114373;27;20079;-66
2022/01/02 11:50:30;;;;;;;58.42;23.88;;;6.70;48.60;;;;;;5135302;27;20872;-63
2022/01/02 11:53:18;;;;;;;58.92;22.92;;;6.70;49.20;;;;;;5116669;27;20522;-64
2022/01/02 11:55:46;;;;;;;52.63;21.33;;;6.60;49.80;;;;;;5134851;27;20523;-63
2022/01/02 11:58:13;;;;;;;57.67;22.58;;;6.70;48.40;;;;;;5116044;27;20091;-64
2022/01/02 12:00:41;;;;;;;57.97;23.35;;;6.80;47.70;;;;;;5116058;27;20068;-64
2022/01/02 12:03:42;;;;;;;67.88;23.05;;;7.00;48.90;;;;;;5114849;27;20110;-63
2022/01/02 12:06:22;;;;;;;59.47;22.98;;;6.70;48.10;;;;;;5115367;27;20128;-64
2022/01/02 12:08:49;;;;;;;64.35;23.33;;;6.80;48.10;;;;;;5136146;27;20075;-63
2022/01/02 12:11:43;;;;;;;52.85;21.38;;;6.60;49.70;;;;;;5116126;27;20071;-62
2022/01/02 12:14:15;;;;;;;53.85;19.88;;;6.60;49.60;;;;;;5110922;27;20156;-64
2022/01/02 12:16:49;;;;;;;57.53;20.15;;;6.20;48.70;;;;;;5114913;27;21033;-63
2022/01/02 12:19:16;;;;;;;40.42;18.90;;;6.50;48.70;;;;;;5115131;27;20077;-61
2022/01/02 12:22:02;;;;;;;;;;;6.60;48.10;;;;;;5116144;27;20079;-63
2022/01/02 12:24:31;;;;;;;51.28;18.10;;;6.70;47.20;;;;;;5116167;27;20457;-63
2022/01/02 12:27:11;;;;;;;48.45;19.27;;;6.70;47.60;;;;;;5116507;27;20167;-66
2022/01/02 12:29:38;;;;;;;42.53;17.52;;;6.70;47.40;;;;;;5115663;27;20501;-64
2022/01/02 12:32:06;;;;;;;45.30;16.58;;;6.70;47.80;;;;;;5115290;27;20068;-62
2022/01/02 12:34:33;;;;;;;40.83;17.50;;;6.50;48.40;;;;;;5116620;27;20518;-64
2022/01/02 12:37:00;;;;;;;41.92;16.15;;;7.00;48.60;;;;;;5114810;27;20156;-63
2022/01/02 12:39:27;;;;;;;43.53;16.27;;;6.30;45.70;;;;;;5115178;27;20072;-66
2022/01/02 12:41:59;;;;;;;42.10;15.02;;;6.30;46.30;;;;;;5117422;27;20075;-65
2022/01/02 12:44:28;;;;;;;44.13;14.98;;;6.50;46.80;;;;;;5141001;27;20127;-65
2022/01/02 12:46:59;;;;;;;42.58;15.43;;;6.50;46.50;;;;;;5125251;27;20068;-63
2022/01/02 12:49:28;;;;;;;40.15;16.60;;;6.30;46.30;;;;;;5116872;27;20071;-63
2022/01/02 12:52:02;;;;;;;38.63;15.98;;;6.30;47.20;;;;;;5116052;27;20078;-66
2022/01/02 12:54:31;;;;;;;42.28;14.90;;;6.20;48.70;;;;;;5115371;27;20076;-64
2022/01/02 12:56:59;;;;;;;43.58;15.23;;;6.30;48.90;;;;;;5115695;27;20068;-64
2022/01/02 12:59:37;;;;;;;34.08;14.32;;;6.30;47.20;;;;;;5114068;27;20074;-64
2022/01/02 13:02:16;;;;;;;39.95;14.73;;;6.30;47.30;;;;;;5114523;27;20123;-65
2022/01/02 13:04:46;;;;;;;40.45;13.30;;;6.40;47.60;;;;;;5114373;27;20087;-65
2022/01/02 13:07:31;;;;;;;27.38;11.73;;;6.40;47.00;;;;;;5116542;27;20531;-65